Time;durP1;ratioP1;P1;durP2;ratioP2;P2;SDS_P1;SDS_P2;PMS_P1;PMS_P2;Temp;Humidity;BMP_temperature;BMP_pressure;BME280_temperature;BME280_humidity;BME280_pressure;Samples;Min_cycle;Max_cycle;Signal;HPM_P1;HPM_P2
2022/05/22 00:00:15;;;;;;;;;;;;;;;20.90;45.47;101622.16;7288290;19;151965;-55
2022/05/22 00:02:42;;;;;;;;;;;;;;;20.89;45.64;101614.88;7285942;19;153346;-55
2022/05/22 00:05:10;;;;;;;;;;;;;;;20.90;45.98;101622.16;7294826;19;153441;-55
2022/05/22 00:07:37;;;;;;;;;;;;;;;20.89;46.07;101609.28;7287492;19;152565;-55
2022/05/22 00:10:04;;;;;;;;;;;;;;;20.90;45.71;101610.94;7285185;19;154109;-55
2022/05/22 00:12:31;;;;;;;;;;;;;;;20.89;46.14;101612.09;7289353;19;151777;-55
2022/05/22 00:14:58;;;;;;;;;;;;;;;20.92;46.54;101609.50;7285924;19;153161;-55
2022/05/22 00:17:24;;;;;;;;;;;;;;;20.92;46.52;101611.47;7286422;19;153840;-55
2022/05/22 00:19:51;;;;;;;;;;;;;;;20.93;46.82;101611.19;7288236;19;151797;-55
2022/05/22 00:22:18;;;;;;;;;;;;;;;20.94;46.71;101612.03;7286581;19;152652;-55
2022/05/22 00:24:45;;;;;;;;;;;;;;;20.92;46.71;101612.31;7286342;19;153578;-55
2022/05/22 00:27:11;;;;;;;;;;;;;;;20.95;46.86;101599.66;7295067;19;151590;-55
2022/05/22 00:29:38;;;;;;;;;;;;;;;20.96;46.68;101606.94;7285257;19;154032;-55
2022/05/22 00:32:06;;;;;;;;;;;;;;;20.95;46.86;101592.06;7285944;19;151808;-55
2022/05/22 00:34:33;;;;;;;;;;;;;;;20.98;47.18;101593.47;7286343;19;152605;-55
2022/05/22 00:37:00;;;;;;;;;;;;;;;20.97;46.83;101591.78;7283580;19;153430;-55
2022/05/22 00:39:26;;;;;;;;;;;;;;;20.96;47.28;101587.28;7286557;19;152652;-55
2022/05/22 00:41:54;;;;;;;;;;;;;;;20.97;47.01;101592.63;7284202;19;153091;-55
2022/05/22 00:44:21;;;;;;;;;;;;;;;20.97;47.29;101587.00;7286196;19;153240;-55
2022/05/22 00:46:49;;;;;;;;;;;;;;;20.98;47.42;101599.91;7285565;19;151876;-55
2022/05/22 00:49:29;;;;;;;;;;;;;;;20.98;47.73;101590.66;7293330;19;153152;-55
2022/05/22 00:51:59;;;;;;;;;;;;;;;20.98;47.48;101591.50;7282874;19;152530;-55
2022/05/22 00:54:28;;;;;;;;;;;;;;;20.99;47.86;101586.69;7286035;19;153574;-54
2022/05/22 00:57:01;;;;;;;;;;;;;;;20.99;47.59;101593.13;7286220;19;153352;-54
2022/05/22 00:59:32;;;;;;;;;;;;;;;21.01;47.89;101595.66;7282361;19;153234;-54
2022/05/22 01:01:59;;;;;;;;;;;;;;;21.01;47.79;101584.44;7285397;19;153575;-55
2022/05/22 01:04:31;;;;;;;;;;;;;;;21.00;48.30;101579.94;7278402;19;153431;-55
2022/05/22 01:06:58;;;;;;;;;;;;;;;21.01;48.01;101587.22;7287702;19;151619;-54
2022/05/22 01:09:25;;;;;;;;;;;;;;;21.01;48.32;101574.03;7285576;19;152585;-54
2022/05/22 01:11:53;;;;;;;;;;;;;;;21.01;48.22;101576.84;7293218;19;154077;-55
2022/05/22 01:14:22;;;;;;;;;;;;;;;21.00;48.27;101571.50;7286105;19;153317;-54
2022/05/22 01:16:51;;;;;;;;;;;;;;;21.02;48.52;101569.25;7281451;19;153943;-54
2022/05/22 01:19:21;;;;;;;;;;;;;;;21.03;48.45;101562.50;7285029;19;152026;-55
2022/05/22 01:21:51;;;;;;;;;;;;;;;21.02;48.51;101561.66;7286526;19;152730;-54
2022/05/22 01:24:18;;;;;;;;;;;;;;;21.04;48.55;101570.63;7284030;19;153472;-55
2022/05/22 01:26:45;;;;;;;;;;;;;;;21.03;48.96;101559.69;7284089;19;152332;-55
2022/05/22 01:29:12;;;;;;;;;;;;;;;21.05;48.61;101568.66;7285004;19;153084;-55
2022/05/22 01:31:38;;;;;;;;;;;;;;;21.05;48.88;101561.06;7284960;19;154162;-54
2022/05/22 01:34:05;;;;;;;;;;;;;;;21.06;48.76;101556.28;7291469;19;151640;-55
2022/05/22 01:36:32;;;;;;;;;;;;;;;21.04;48.79;101553.75;7275187;19;152864;-55
2022/05/22 01:38:58;;;;;;;;;;;;;;;21.04;48.80;101547.28;7276009;19;152571;-54
2022/05/22 01:41:25;;;;;;;;;;;;;;;21.05;48.79;101549.81;7285742;19;152956;-54
2022/05/22 01:43:54;;;;;;;;;;;;;;;21.06;48.93;101548.69;7282838;19;154780;-55
2022/05/22 01:46:22;;;;;;;;;;;;;;;21.04;49.38;101550.94;7285180;19;152086;-55
2022/05/22 01:48:50;;;;;;;;;;;;;;;21.06;49.06;101542.22;7286015;19;152614;-55
2022/05/22 01:51:17;;;;;;;;;;;;;;;21.10;49.26;101548.94;7288879;19;152090;-55
2022/05/22 01:53:45;;;;;;;;;;;;;;;21.11;49.69;101542.19;7289980;19;151731;-59
2022/05/22 01:56:12;;;;;;;;;;;;;;;21.09;49.44;101539.66;7295695;19;153246;-55
2022/05/22 01:58:39;;;;;;;;;;;;;;;21.09;49.67;101539.66;7289973;19;152080;-55
2022/05/22 02:01:07;;;;;;;;;;;;;;;21.08;49.97;101540.78;7291737;19;152416;-55
2022/05/22 02:03:34;;;;;;;;;;;;;;;21.07;49.81;101541.09;7289406;19;154104;-55
2022/05/22 02:06:01;;;;;;;;;;;;;;;21.07;50.06;101535.47;7291310;19;151918;-55
2022/05/22 02:08:27;;;;;;;;;;;;;;;21.06;49.97;101540.25;7289361;19;152533;-55
2022/05/22 02:10:56;;;;;;;;;;;;;;;21.05;49.77;101543.34;7290035;19;154096;-55
2022/05/22 02:13:24;;;;;;;;;;;;;;;21.07;49.62;101530.72;7287881;19;152031;-55
2022/05/22 02:15:51;;;;;;;;;;;;;;;21.06;49.79;101534.66;7295310;19;152807;-54
2022/05/22 02:18:18;;;;;;;;;;;;;;;21.09;50.23;101536.00;7290146;19;152003;-55
2022/05/22 02:20:47;;;;;;;;;;;;;;;21.09;49.84;101534.03;7290141;19;152697;-55
2022/05/22 02:23:18;;;;;;;;;;;;;;;21.09;49.77;101547.25;7288552;19;154204;-55
2022/05/22 02:25:46;;;;;;;;;;;;;;;21.08;50.18;101545.56;7288778;19;152313;-55
2022/05/22 02:28:14;;;;;;;;;;;;;;;21.09;49.77;101538.81;7289911;19;153439;-55
2022/05/22 02:30:42;;;;;;;;;;;;;;;21.09;49.92;101538.81;7287824;19;153942;-55
2022/05/22 02:33:10;;;;;;;;;;;;;;;21.10;49.74;101534.88;7288582;19;151865;-55
2022/05/22 02:35:37;;;;;;;;;;;;;;;21.12;49.77;101532.63;7289727;19;153562;-55
2022/05/22 02:38:04;;;;;;;;;;;;;;;21.09;49.96;101528.41;7295065;19;153755;-55
2022/05/22 02:40:33;;;;;;;;;;;;;;;21.08;50.12;101528.69;7289905;19;153112;-55
2022/05/22 02:43:00;;;;;;;;;;;;;;;21.08;50.22;101528.69;7287411;19;153448;-55
2022/05/22 02:45:29;;;;;;;;;;;;;;;21.11;50.13;101522.50;7289252;19;151592;-55
2022/05/22 02:47:56;;;;;;;;;;;;;;;21.10;50.16;101509.59;7287254;19;153139;-55
2022/05/22 02:50:24;;;;;;;;;;;;;;;21.07;50.76;101511.03;7280316;19;154689;-55
2022/05/22 02:52:51;;;;;;;;;;;;;;;21.09;50.83;101511.56;7272019;19;154017;-55
2022/05/22 02:55:21;;;;;;;;;;;;;;;21.08;50.51;101509.03;7278365;19;152743;-55
2022/05/22 02:57:51;;;;;;;;;;;;;;;21.08;50.57;101514.66;7285751;19;154008;-55
2022/05/22 03:00:19;;;;;;;;;;;;;;;21.06;50.75;101514.13;7288761;19;152062;-54
2022/05/22 03:02:46;;;;;;;;;;;;;;;21.07;50.77;101513.00;7286078;19;154982;-55
2022/05/22 03:05:14;;;;;;;;;;;;;;;21.08;51.15;101503.41;7286187;19;152265;-55
2022/05/22 03:07:45;;;;;;;;;;;;;;;21.08;51.07;101501.44;7289277;19;153450;-55
2022/05/22 03:10:13;;;;;;;;;;;;;;;21.07;51.07;101497.00;7288567;19;153537;-55
2022/05/22 03:12:39;;;;;;;;;;;;;;;21.07;51.29;101498.97;7289375;19;151787;-54
2022/05/22 03:15:08;;;;;;;;;;;;;;;21.08;51.28;101497.78;7288619;19;153286;-54
2022/05/22 03:17:34;;;;;;;;;;;;;;;21.08;51.65;101497.78;7285458;19;153382;-54
2022/05/22 03:20:03;;;;;;;;;;;;;;;21.08;51.89;101495.00;7288054;19;152021;-54
2022/05/22 03:22:35;;;;;;;;;;;;;;;21.09;51.71;101497.50;7295285;19;152667;-54
2022/05/22 03:25:02;;;;;;;;;;;;;;;21.09;51.59;101489.09;7286365;19;153545;-54
2022/05/22 03:27:29;;;;;;;;;;;;;;;21.08;52.18;101487.41;7288993;19;153113;-54
2022/05/22 03:29:55;;;;;;;;;;;;;;;21.08;51.71;101481.78;7284646;19;153365;-54
2022/05/22 03:32:29;;;;;;;;;;;;;;;21.09;51.67;101479.81;7289766;19;151823;-54
2022/05/22 03:34:56;;;;;;;;;;;;;;;21.10;52.03;101473.91;7289415;19;153196;-55
2022/05/22 03:37:25;;;;;;;;;;;;;;;21.09;51.59;101468.56;7285238;19;153969;-54
2022/05/22 03:39:53;;;;;;;;;;;;;;;21.10;52.13;101467.44;7288175;19;151729;-54
2022/05/22 03:42:31;;;;;;;;;;;;;;;21.09;51.91;101465.75;7287228;19;152913;-55
2022/05/22 03:45:00;;;;;;;;;;;;;;;21.08;51.89;101464.09;7293726;19;154045;-55
2022/05/22 03:47:27;;;;;;;;;;;;;;;21.08;52.14;101462.09;7288161;19;152671;-55
2022/05/22 03:49:54;;;;;;;;;;;;;;;21.07;51.96;101459.63;7287572;19;153162;-54
2022/05/22 03:52:31;;;;;;;;;;;;;;;21.09;52.09;101457.34;7286433;19;151734;-55
2022/05/22 03:54:58;;;;;;;;;;;;;;;21.13;51.84;101458.44;7289156;19;152971;-55
2022/05/22 03:57:24;;;;;;;;;;;;;;;21.12;51.76;101451.94;7284094;19;153729;-54
2022/05/22 03:59:51;;;;;;;;;;;;;;;21.12;52.03;101454.75;7282044;19;152075;-54
2022/05/22 04:02:33;;;;;;;;;;;;;;;21.11;52.09;101455.91;7284066;19;153486;-54
2022/05/22 04:05:00;;;;;;;;;;;;;;;21.11;52.46;101460.69;7286628;19;153359;-55
2022/05/22 04:07:27;;;;;;;;;;;;;;;21.12;52.11;101460.38;7296150;19;151830;-55
2022/05/22 04:09:55;;;;;;;;;;;;;;;21.13;51.95;101461.25;7286712;19;154003;-55
2022/05/22 04:12:28;;;;;;;;;;;;;;;21.13;52.08;101450.00;7286284;19;151940;-55
2022/05/22 04:14:55;;;;;;;;;;;;;;;21.12;52.37;101457.56;7287803;19;152634;-55
2022/05/22 04:17:21;;;;;;;;;;;;;;;21.10;52.73;101450.59;7283410;19;153227;-55
2022/05/22 04:19:48;;;;;;;;;;;;;;;21.11;52.24;101441.03;7287537;19;151864;-55
2022/05/22 04:22:27;;;;;;;;;;;;;;;21.09;52.52;101444.13;7288283;19;152747;-55
2022/05/22 04:25:15;;;;;;;;;;;;;;;21.11;52.56;101446.66;7286402;19;153971;-55
2022/05/22 04:27:42;;;;;;;;;;;;;;;21.09;52.28;101451.72;7293523;19;151662;-55
2022/05/22 04:30:10;;;;;;;;;;;;;;;21.08;52.47;101448.06;7284372;19;153684;-55
2022/05/22 04:32:36;;;;;;;;;;;;;;;21.10;52.46;101450.59;7287242;19;151567;-55
2022/05/22 04:35:03;;;;;;;;;;;;;;;21.09;52.13;101446.09;7287213;19;153144;-55
2022/05/22 04:37:30;;;;;;;;;;;;;;;21.09;52.44;101451.72;7284243;19;153188;-55
2022/05/22 04:39:57;;;;;;;;;;;;;;;21.11;52.57;101443.84;7286569;19;151836;-55
2022/05/22 04:42:32;;;;;;;;;;;;;;;21.12;52.32;101442.69;7287311;19;153465;-55
2022/05/22 04:44:59;;;;;;;;;;;;;;;21.13;52.29;101450.00;7285157;19;153932;-55
2022/05/22 04:47:25;;;;;;;;;;;;;;;21.08;52.13;101447.22;7286471;19;151764;-55
2022/05/22 04:49:52;;;;;;;;;;;;;;;21.08;52.35;101439.63;7293742;19;152434;-55
2022/05/22 04:52:27;;;;;;;;;;;;;;;21.08;52.22;101441.59;7287068;19;151992;-54
2022/05/22 04:54:54;;;;;;;;;;;;;;;21.07;52.43;101439.94;7285518;19;152722;-55
2022/05/22 04:57:21;;;;;;;;;;;;;;;21.07;52.71;101440.78;7284016;19;153189;-55
2022/05/22 04:59:47;;;;;;;;;;;;;;;21.09;52.55;101440.47;7281004;19;151660;-55
2022/05/22 05:02:23;;;;;;;;;;;;;;;21.07;52.12;101440.78;7281229;19;153413;-55
2022/05/22 05:04:58;;;;;;;;;;;;;;;21.09;52.50;101444.13;7284672;19;152237;-55
2022/05/22 05:07:25;;;;;;;;;;;;;;;21.09;52.47;101446.09;7284740;19;151914;-54
2022/05/22 05:09:52;;;;;;;;;;;;;;;21.06;52.59;101444.72;7285025;19;153287;-55
2022/05/22 05:12:20;;;;;;;;;;;;;;;21.06;52.73;101441.09;7291363;19;153371;-54
2022/05/22 05:14:51;;;;;;;;;;;;;;;21.03;52.42;101441.69;7284283;19;151968;-54
2022/05/22 05:17:18;;;;;;;;;;;;;;;21.02;52.55;101437.19;7281487;19;153530;-54
2022/05/22 05:19:45;;;;;;;;;;;;;;;21.02;52.56;101442.81;7285538;19;151856;-55
2022/05/22 05:22:12;;;;;;;;;;;;;;;21.03;52.98;101445.31;7284502;19;153544;-54
2022/05/22 05:24:48;;;;;;;;;;;;;;;21.03;52.42;101448.13;7282003;19;155066;-55
2022/05/22 05:27:14;;;;;;;;;;;;;;;21.04;52.90;101444.19;7285389;19;151828;-54
2022/05/22 05:30:01;;;;;;;;;;;;;;;21.03;52.86;101441.69;7285213;19;154735;-55
2022/05/22 05:32:36;;;;;;;;;;;;;;;21.07;52.70;101442.75;7283439;19;153566;-55
2022/05/22 05:35:06;;;;;;;;;;;;;;;21.06;52.91;101443.91;7280701;19;152284;-55
2022/05/22 05:37:34;;;;;;;;;;;;;;;21.04;52.65;101444.19;7282924;19;153542;-55
2022/05/22 05:40:00;;;;;;;;;;;;;;;21.03;52.69;101445.31;7284842;19;151711;-55
2022/05/22 05:42:34;;;;;;;;;;;;;;;21.02;52.81;101438.03;7285034;19;152779;-55
2022/05/22 05:45:02;;;;;;;;;;;;;;;21.02;53.07;101442.81;7280304;19;153647;-55
2022/05/22 05:47:29;;;;;;;;;;;;;;;21.01;52.84;101435.53;7284049;19;152143;-55
2022/05/22 05:49:56;;;;;;;;;;;;;;;21.02;52.60;101440.00;7284464;19;152802;-55
2022/05/22 05:52:35;;;;;;;;;;;;;;;21.01;52.66;101441.13;7282763;19;153958;-55
2022/05/22 05:55:02;;;;;;;;;;;;;;;21.02;52.47;101442.81;7283398;19;152057;-55
2022/05/22 05:57:29;;;;;;;;;;;;;;;21.00;52.89;101437.50;7288982;19;152309;-55
2022/05/22 05:59:56;;;;;;;;;;;;;;;21.01;52.98;101444.78;7284108;19;152176;-55
2022/05/22 06:02:31;;;;;;;;;;;;;;;20.99;53.13;101449.84;7280194;19;153286;-55
2022/05/22 06:04:58;;;;;;;;;;;;;;;21.00;52.95;101445.91;7276327;19;154207;-55
2022/05/22 06:07:25;;;;;;;;;;;;;;;21.00;53.15;101442.28;7281096;19;151851;-55
2022/05/22 06:09:52;;;;;;;;;;;;;;;21.01;52.91;101449.56;7282908;19;152493;-55
2022/05/22 06:12:21;;;;;;;;;;;;;;;20.99;53.02;101443.41;7282404;19;153250;-55
2022/05/22 06:15:02;;;;;;;;;;;;;;;20.99;52.85;101443.41;7283749;19;151849;-55
2022/05/22 06:17:34;;;;;;;;;;;;;;;21.00;52.85;101445.09;7283043;19;152723;-54
2022/05/22 06:20:03;;;;;;;;;;;;;;;21.00;52.83;101440.31;7288492;19;151933;-55
2022/05/22 06:22:32;;;;;;;;;;;;;;;21.01;52.85;101438.34;7284145;19;152722;-55
2022/05/22 06:25:01;;;;;;;;;;;;;;;21.01;52.74;101438.34;7280893;19;154261;-54
2022/05/22 06:27:27;;;;;;;;;;;;;;;21.01;52.51;101427.09;7284279;19;151956;-54
2022/05/22 06:29:54;;;;;;;;;;;;;;;20.99;53.10;101421.75;7281986;19;153710;-54
2022/05/22 06:32:32;;;;;;;;;;;;;;;21.02;53.06;101428.78;7281242;19;153238;-54
2022/05/22 06:35:02;;;;;;;;;;;;;;;21.01;53.06;101427.09;7285254;19;151438;-55
2022/05/22 06:37:29;;;;;;;;;;;;;;;20.99;53.05;101420.94;7288033;19;153635;-54
2022/05/22 06:40:03;;;;;;;;;;;;;;;20.99;53.04;101418.97;7296185;19;153762;-55
2022/05/22 06:42:32;;;;;;;;;;;;;;;20.99;52.89;101416.16;7290164;19;153286;-54
2022/05/22 06:44:59;;;;;;;;;;;;;;;21.00;52.95;101409.41;7286174;19;154217;-55
2022/05/22 06:47:28;;;;;;;;;;;;;;;20.99;53.10;101410.53;7288349;19;152048;-54
2022/05/22 06:49:55;;;;;;;;;;;;;;;21.00;53.19;101417.81;7288757;19;153433;-54
2022/05/22 06:52:32;;;;;;;;;;;;;;;21.01;52.92;101407.44;7285895;19;153557;-55
2022/05/22 06:55:02;;;;;;;;;;;;;;;21.03;53.04;101416.41;7289446;19;151564;-55
2022/05/22 06:57:29;;;;;;;;;;;;;;;20.99;53.17;101410.53;7286654;19;152504;-55
2022/05/22 06:59:57;;;;;;;;;;;;;;;21.00;53.44;101400.97;7288879;19;153252;-55
2022/05/22 07:02:29;;;;;;;;;;;;;;;21.00;53.37;101406.59;7294104;19;151840;-54
2022/05/22 07:04:59;;;;;;;;;;;;;;;21.02;53.32;101407.13;7284569;19;153921;-54
2022/05/22 07:07:26;;;;;;;;;;;;;;;21.01;53.29;101407.44;7288286;19;152343;-55
2022/05/22 07:09:53;;;;;;;;;;;;;;;21.01;53.19;101402.66;7289938;19;153226;-55
2022/05/22 07:12:24;;;;;;;;;;;;;;;21.00;53.61;101405.75;7288000;19;153984;-55
2022/05/22 07:15:01;;;;;;;;;;;;;;;21.01;53.40;101393.38;7288725;19;151746;-55
2022/05/22 07:17:28;;;;;;;;;;;;;;;21.01;53.45;101397.03;7287065;19;152572;-55
2022/05/22 07:19:55;;;;;;;;;;;;;;;20.99;53.20;101399.28;7287596;19;154084;-55
2022/05/22 07:22:29;;;;;;;;;;;;;;;21.00;53.37;101403.78;7288664;19;152344;-55
2022/05/22 07:24:56;;;;;;;;;;;;;;;21.01;53.37;101401.81;7295114;19;152817;-54
2022/05/22 07:27:22;;;;;;;;;;;;;;;21.03;53.16;101391.13;7289478;19;151495;-55
2022/05/22 07:29:49;;;;;;;;;;;;;;;21.01;53.73;101399.00;7287796;19;152840;-55
2022/05/22 07:32:27;;;;;;;;;;;;;;;21.00;53.26;101392.53;7287589;19;153239;-54
2022/05/22 07:35:00;;;;;;;;;;;;;;;21.00;53.64;101384.13;7287920;19;151732;-54
2022/05/22 07:37:27;;;;;;;;;;;;;;;21.02;53.50;101389.44;7286589;19;152584;-55
2022/05/22 07:39:54;;;;;;;;;;;;;;;21.00;53.16;101381.31;7287654;19;153241;-54
2022/05/22 07:42:28;;;;;;;;;;;;;;;21.02;53.36;101383.81;7287524;19;151817;-55
2022/05/22 07:44:55;;;;;;;;;;;;;;;21.02;53.12;101375.41;7287568;19;153001;-54
2022/05/22 07:47:22;;;;;;;;;;;;;;;21.02;53.47;101369.78;7294611;19;153250;-55
2022/05/22 07:52:37;;;;;;;;;;;;;;;21.03;53.29;101368.66;7288210;19;152015;-55
2022/05/22 07:55:05;;;;;;;;;;;;;;;21.03;53.08;101361.03;7289091;19;151454;-54
2022/05/22 07:57:31;;;;;;;;;;;;;;;21.07;53.54;101358.47;7288290;19;152454;-54
2022/05/22 08:00:06;;;;;;;;;;;;;;;21.07;53.41;101356.50;7286625;19;153272;-55
2022/05/22 08:02:32;;;;;;;;;;;;;;;21.17;53.28;101356.38;7288235;19;151974;-55
2022/05/22 08:05:00;;;;;;;;;;;;;;;21.17;53.27;101341.47;7286725;19;152783;-55
2022/05/22 08:07:26;;;;;;;;;;;;;;;21.13;53.20;101335.63;7286525;19;153787;-55
2022/05/22 08:09:53;;;;;;;;;;;;;;;21.09;53.16;101323.31;7294539;19;152111;-55
2022/05/22 08:12:27;;;;;;;;;;;;;;;21.08;52.93;101321.63;7286622;19;153959;-55
2022/05/22 08:15:00;;;;;;;;;;;;;;;21.08;52.87;101323.59;7284132;19;151911;-55
2022/05/22 08:17:26;;;;;;;;;;;;;;;21.08;52.63;101323.59;7285221;19;153951;-55
2022/05/22 08:19:53;;;;;;;;;;;;;;;21.05;52.94;101307.34;7281643;19;153325;-55
2022/05/22 08:22:27;;;;;;;;;;;;;;;21.04;52.69;101306.53;7288014;19;151789;-54
2022/05/22 08:24:54;;;;;;;;;;;;;;;21.03;52.84;101302.03;7287989;19;152664;-55
2022/05/22 08:27:20;;;;;;;;;;;;;;;21.06;53.03;101300.59;7285821;19;155124;-55
2022/05/22 08:29:47;;;;;;;;;;;;;;;21.11;52.95;101289.28;7295739;19;152455;-55
2022/05/22 08:32:30;;;;;;;;;;;;;;;21.15;53.29;101302.47;7283189;19;153179;-55
2022/05/22 08:35:01;;;;;;;;;;;;;;;21.18;53.24;101286.97;7286756;19;152312;-55
2022/05/22 08:37:28;;;;;;;;;;;;;;;21.21;53.62;101292.78;7286833;19;154005;-55
2022/05/22 08:39:55;;;;;;;;;;;;;;;21.27;53.67;101291.59;7285968;19;153965;-55
2022/05/22 08:42:45;;;;;;;;;;;;;;;21.34;53.22;101298.81;7286625;19;151548;-55
2022/05/22 08:45:15;;;;;;;;;;;;;;;21.42;53.50;101281.25;7284918;19;152665;-55
2022/05/22 08:48:02;;;;;;;;;;;;;;;21.49;53.03;101273.22;7286181;19;153999;-56
2022/05/22 08:50:30;;;;;;;;;;;;;;;21.57;52.77;101276.22;7286280;19;151907;-55
2022/05/22 08:53:18;;;;;;;;;;;;;;;21.63;52.36;101274.13;7291919;19;153629;-57
2022/05/22 08:58:56;;;;;;;;;;;;;;;21.76;51.40;101275.31;7279520;19;152488;-56
2022/05/22 09:01:27;;;;;;;;;;;;;;;21.83;50.72;101267.31;7282405;19;153502;-56
2022/05/22 09:03:54;;;;;;;;;;;;;;;21.90;50.52;101267.72;7283972;19;151734;-56
2022/05/22 09:06:26;;;;;;;;;;;;;;;21.95;49.94;101254.44;7283246;19;152988;-56
2022/05/22 09:08:53;;;;;;;;;;;;;;;22.00;49.48;101257.16;7283177;19;154108;-56
2022/05/22 09:11:23;;;;;;;;;;;;;;;22.04;48.95;101249.75;7283741;19;152141;-56
2022/05/22 09:13:50;;;;;;;;;;;;;;;22.07;48.79;101260.41;7283415;19;152103;-56
2022/05/22 09:16:28;;;;;;;;;;;;;;;22.12;48.86;101262.28;7290199;19;152500;-56
2022/05/22 09:19:05;;;;;;;;;;;;;;;22.15;48.13;101262.50;7282018;19;153199;-56
2022/05/22 09:21:43;;;;;;;;;;;;;;;22.21;48.55;101249.16;7282236;19;154041;-56
2022/05/22 09:24:17;;;;;;;;;;;;;;;22.22;48.54;101247.97;7283986;19;151715;-56
2022/05/22 09:26:44;;;;;;;;;;;;;;;22.24;48.26;101242.06;7281139;19;152175;-56
2022/05/22 09:29:21;;;;;;;;;;;;;;;22.31;48.14;101240.47;7280577;19;153667;-55
2022/05/22 09:32:01;;;;;;;;;;;;;;;22.26;47.53;101236.97;7282189;19;151906;-56
2022/05/22 09:34:46;;;;;;;;;;;;;;;22.24;46.66;101233.59;7284243;19;153410;-56
2022/05/22 09:37:22;;;;;;;;;;;;;;;22.27;46.94;101232.97;7277233;19;153772;-56
2022/05/22 09:42:37;;;;;;;;;;;;;;;22.27;44.68;101238.59;7280995;19;153325;-56
2022/05/22 09:45:04;;;;;;;;;;;;;;;22.26;43.69;101226.50;7281636;19;152462;-55
2022/05/22 09:47:32;;;;;;;;;;;;;;;22.25;44.05;101224.03;7282431;19;152725;-56
2022/05/22 09:49:59;;;;;;;;;;;;;;;22.34;42.41;101211.72;7278490;19;154534;-55
2022/05/22 09:52:32;;;;;;;;;;;;;;;22.38;43.00;101195.03;7281247;19;152226;-55
2022/05/22 09:55:09;;;;;;;;;;;;;;;22.44;43.86;101188.94;7281358;19;152876;-55
2022/05/22 09:57:37;;;;;;;;;;;;;;;22.51;43.39;101195.00;7279744;19;153487;-55
2022/05/22 10:00:08;;;;;;;;;;;;;;;22.57;43.49;101182.47;7279722;19;152348;-55
2022/05/22 10:02:33;;;;;;;;;;;;;;;22.62;43.40;101176.69;7285542;19;151765;-55
2022/05/22 10:05:06;;;;;;;;;;;;;;;22.68;43.66;101170.94;7281035;19;152015;-55
2022/05/22 10:07:34;;;;;;;;;;;;;;;22.73;43.97;101171.69;7280674;19;153375;-55
2022/05/22 10:10:07;;;;;;;;;;;;;;;22.78;44.03;101177.22;7284270;19;154083;-55
2022/05/22 10:12:37;;;;;;;;;;;;;;;22.81;44.09;101161.66;7288671;19;151865;-55
2022/05/22 10:15:11;;;;;;;;;;;;;;;22.85;43.94;101157.06;7288382;19;153553;-55
2022/05/22 10:17:48;;;;;;;;;;;;;;;22.88;43.68;101154.44;7287535;19;154345;-56
2022/05/22 10:20:15;;;;;;;;;;;;;;;22.91;43.83;101145.34;7285710;19;152238;-55
2022/05/22 10:22:51;;;;;;;;;;;;;;;22.94;43.72;101146.69;7287624;19;153442;-55
2022/05/22 10:25:28;;;;;;;;;;;;;;;22.96;43.65;101145.22;7291916;19;152206;-55
2022/05/22 10:27:58;;;;;;;;;;;;;;;22.99;43.62;101138.09;7288111;19;152847;-55
2022/05/22 10:30:35;;;;;;;;;;;;;;;23.00;43.52;101134.97;7287228;19;153899;-55
2022/05/22 10:33:07;;;;;;;;;;;;;;;23.03;43.50;101134.31;7286618;19;152297;-55
2022/05/22 10:35:43;;;;;;;;;;;;;;;23.04;43.82;101133.16;7287522;19;152434;-56
2022/05/22 10:38:16;;;;;;;;;;;;;;;23.06;43.72;101127.22;7285023;19;154454;-55
2022/05/22 10:43:22;;;;;;;;;;;;;;;23.10;43.87;101130.22;7285791;19;153572;-55
2022/05/22 10:45:49;;;;;;;;;;;;;;;23.11;43.52;101129.91;7293899;19;154325;-55
2022/05/22 10:48:21;;;;;;;;;;;;;;;23.14;43.52;101136.88;7287408;19;154575;-56
2022/05/22 10:50:54;;;;;;;;;;;;;;;23.13;43.58;101123.94;7285901;19;154419;-55
2022/05/22 10:53:23;;;;;;;;;;;;;;;23.13;43.59;101127.56;7287325;19;151789;-55
2022/05/22 10:55:52;;;;;;;;;;;;;;;23.18;43.43;101120.97;7280868;19;152356;-55
2022/05/22 10:58:24;;;;;;;;;;;;;;;23.15;43.18;101119.66;7282345;19;156377;-55
2022/05/22 11:00:53;;;;;;;;;;;;;;;23.10;41.40;101116.97;7284990;19;152710;-55
2022/05/22 11:03:27;;;;;;;;;;;;;;;23.11;40.90;101120.63;7287572;19;153659;-56
2022/05/22 11:05:54;;;;;;;;;;;;;;;23.02;41.10;101112.09;7284833;19;152193;-56
2022/05/22 11:08:31;;;;;;;;;;;;;;;23.01;39.36;101107.63;7294618;19;151740;-55
2022/05/22 11:11:07;;;;;;;;;;;;;;;22.99;40.73;101101.47;7283635;19;153289;-56
2022/05/22 11:13:34;;;;;;;;;;;;;;;22.97;41.25;101100.97;7287112;19;152062;-56
2022/05/22 11:16:10;;;;;;;;;;;;;;;22.96;41.19;101099.28;7285680;19;153521;-56
2022/05/22 11:18:37;;;;;;;;;;;;;;;22.99;41.43;101091.03;7283271;19;153959;-56
2022/05/22 11:21:08;;;;;;;;;;;;;;;22.98;41.11;101092.19;7281783;19;151873;-56
2022/05/22 11:23:36;;;;;;;;;;;;;;;23.05;41.45;101086.09;7286535;19;153453;-55
2022/05/22 11:26:08;;;;;;;;;;;;;;;23.05;42.19;101086.09;7283316;19;152270;-55
2022/05/22 11:28:54;;;;;;;;;;;;;;;23.02;42.17;101084.75;7284956;19;151795;-56
2022/05/22 11:31:22;;;;;;;;;;;;;;;23.03;42.67;101079.97;7289916;19;152455;-56
2022/05/22 11:33:59;;;;;;;;;;;;;;;23.08;42.79;101070.53;7285736;19;152274;-55
2022/05/22 11:36:37;;;;;;;;;;;;;;;23.05;42.61;101078.47;7285122;19;153524;-56
2022/05/22 11:39:14;;;;;;;;;;;;;;;23.07;43.06;101074.50;7284162;19;153459;-56
2022/05/22 11:41:46;;;;;;;;;;;;;;;23.09;43.08;101075.00;7286785;19;151949;-56
2022/05/22 11:44:20;;;;;;;;;;;;;;;23.10;43.70;101066.22;7283857;19;152780;-56
2022/05/22 11:46:49;;;;;;;;;;;;;;;23.09;44.64;101063.72;7281106;19;153439;-55
2022/05/22 11:49:26;;;;;;;;;;;;;;;23.02;45.47;101061.38;7286501;19;151708;-55
2022/05/22 11:52:02;;;;;;;;;;;;;;;23.33;44.81;101056.56;7285484;19;152716;-63
2022/05/22 11:54:38;;;;;;;;;;;;;;;23.58;44.91;101048.53;7291856;19;153335;-65
2022/05/22 11:57:15;;;;;;;;;;;;;;;23.60;44.84;101044.25;7283859;19;153546;-64
2022/05/22 11:59:52;;;;;;;;;;;;;;;23.62;44.69;101030.63;7279798;19;154384;-63
2022/05/22 12:02:24;;;;;;;;;;;;;;;23.60;45.48;101035.78;7286406;19;152087;-63
2022/05/22 12:04:54;;;;;;;;;;;;;;;23.57;45.94;101033.63;7285419;19;153275;-67
2022/05/22 12:07:24;;;;;;;;;;;;;;;23.48;46.08;101027.13;7282780;19;153742;-61
2022/05/22 12:10:01;;;;;;;;;;;;;;;23.39;46.22;101020.59;7289117;19;151795;-62
2022/05/22 12:12:37;;;;;;;;;;;;;;;23.40;45.70;101023.06;7287826;19;152100;-62
2022/05/22 12:15:19;;;;;;;;;;;;;;;23.38;45.25;101016.09;7288864;19;152328;-62
2022/05/22 12:17:53;;;;;;;;;;;;;;;23.32;45.06;101011.75;7296875;19;151539;-62
2022/05/22 12:20:29;;;;;;;;;;;;;;;23.28;45.44;101014.41;7286148;19;153718;-62
2022/05/22 12:25:42;;;;;;;;;;;;;;;23.18;45.34;101017.50;7285561;19;151909;-63
2022/05/22 12:28:19;;;;;;;;;;;;;;;23.16;45.10;101002.94;7283180;19;151865;-62
2022/05/22 12:30:46;;;;;;;;;;;;;;;23.14;45.00;100993.94;7286689;19;151655;-63
2022/05/22 12:33:13;;;;;;;;;;;;;;;23.14;45.31;101001.56;7290013;19;153904;-63
2022/05/22 12:35:40;;;;;;;;;;;;;;;23.14;44.92;100998.75;7285338;19;151806;-63
2022/05/22 12:38:12;;;;;;;;;;;;;;;23.08;44.80;100988.78;7289441;19;151789;-62
2022/05/22 12:40:45;;;;;;;;;;;;;;;23.06;45.31;100980.66;7290310;19;151796;-62
2022/05/22 12:43:16;;;;;;;;;;;;;;;23.05;44.86;100977.00;7287585;19;151870;-63
2022/05/22 12:45:48;;;;;;;;;;;;;;;23.05;45.04;100962.91;7287790;19;153957;-61
2022/05/22 12:48:25;;;;;;;;;;;;;;;23.06;44.96;100975.03;7287575;19;154878;-63
2022/05/22 12:51:05;;;;;;;;;;;;;;;23.07;44.97;100968.25;7288432;19;151855;-63
2022/05/22 12:53:31;;;;;;;;;;;;;;;23.04;44.74;100960.41;7290245;19;151801;-64
2022/05/22 12:56:08;;;;;;;;;;;;;;;23.03;44.85;100955.94;7285574;19;155937;-62